AirNav   TITAN Aviation Fuels
 
 408 users online  

01E Lake James Seaplane Base
Angola, Indiana, USA

GOING TO ANGOLA?


FAA INFORMATION EFFECTIVE 22 APRIL 2021

Location

FAA Identifier: 01E
Lat/Long: 41-42-00.0000N 085-02-21.5000W
41-42.000000N 085-02.358333W
41.7000000,-85.0393056
(estimated)
Elevation: 964 ft. / 294 m (estimated)
Variation: 04W (1995)
From city: 4 miles NW of ANGOLA, IN
Time zone: UTC -4 (UTC -5 during Standard Time)
Zip code: 46703

Seaplane Base Operations

Seaplane Base use: Open to the public
Activation date: 08/1999
Control tower: no
ARTCC: CHICAGO CENTER
FSS: TERRE HAUTE FLIGHT SERVICE STATION
NOTAMs facility: HUF (NOTAM-D service available)
Attendance: UNATNDD
Segmented circle: no

Seaplane Base Communications

CTAF: 122.9
WX AWOS-3 at ANQ (4 nm SW): 118.175 (260-668-5630)
WX AWOS-3 at OEB (14 nm N): 118.125 (517-279-1810)
WX AWOS-3P at C62 (17 nm SW): 119.925 (260-347-2967)
WX AWOS-3 at IRS (19 nm W): 121.325 (269-659-8715)

Nearby radio navigation aids

VOR radial/distance  VOR name  Freq  Var
LFDr214/25.0LITCHFIELD VOR/DME111.2005W
OLKr040/(34.1)WEBSTER LAKE VOR110.4003W
AZOr146/39.5KALAMAZOO VOR/DME109.0001W

 
NDB name  Hdg/Dist  Freq  Var  ID
STURGIS115/18.938204WIRS .. .-. ...

Seaplane Base Services

Runway Information

Runway 13W/31W

Dimensions: 2500 x 200 ft. / 762 x 61 m
Surface: water
RUNWAY 13W  RUNWAY 31W
Traffic pattern: leftleft

Seaplane Base Ownership and Management from official FAA records

Ownership: Publicly-owned
Owner: INDIANA DEPT OF NATURAL RESOURCES
402 WEST WASHINGTON ST, RM. W-255D
INDIANAPOLIS, IN 46204
Phone (317) 232-0935
Manager: LT. KENTON TURNER
402 W. WASHINGTON ST., RM. W-255D
INDIANAPOLIS, IN 46204
Phone (317) 232-0935
BOATING LAW ADMINISTRATOR.

Additional Remarks

SEAPLANE OPS PROHIBITED SS-SR.
EXPECT HEAVY BOAT TFC BETWEEN MEMORIAL DAY AND LABOR DAY.
DO NOT BLOCK BOATS RAMPS, SEAPLANE DOCKING AREAS LIMITED.
FOR CD CTC GREAT LAKES APCH AT 269-459-3344, WHEN APCH CLSD CTC CHICAGO ARTCC AT 630-906-8921.

Instrument Procedures

There are no published instrument procedures at 01E.

Some nearby airports with instrument procedures:

KANQ - Tri-State Steuben County Airport (4 nm SW)
KOEB - Branch County Memorial Airport (14 nm N)
C62 - Kendallville Municipal Airport (17 nm SW)
KIRS - Kirsch Municipal Airport (19 nm W)
KGWB - De Kalb County Airport (24 nm S)
 
Loc | Ops | Rwys | IFR | FBO | Links
Com | Nav | Svcs | Stats | Notes
Area around 01E (Lake James Seaplane Base)
 
Road maps at: MapQuest Bing Google
 
Aerial photo
WARNING: Photo may not be current or correct
Aerial photo of 01E (Lake James Seaplane Base)
Photo by Mark Hansbarger
Photo taken 13-Aug-2009
looking northwest.

Do you have a better or more recent aerial photo of Lake James Seaplane Base that you would like to share? If so, please send us your photo.

 
Sectional chart

 
Airport distance calculator
Flying to Lake James Seaplane Base? Find the distance to fly.

From to 01E

Sunrise and sunset
Times for 15-May-2021
 Local
(UTC-4)
 Zulu
(UTC)
Morning civil twilight05:5009:50
Sunrise06:2110:21
Sunset20:5200:52
Evening civil twilight21:2301:23

Current date and time
Zulu (UTC)  15-May-2021 07:46:34
Local (UTC-4)  15-May-2021 03:46:34
 
METAR
KANQ 
4nm SW 
150735Z AUTO 00000KT 10SM FEW042 FEW095 07/06 A3025 RMK AO2
KOEB 
13nm N 
150735Z AUTO 00000KT 10SM SCT100 07/05 A3025 RMK AO2 T00710046
KC62 
17nm SW 
150735Z AUTO 00000KT 10SM SCT095 07/05 A3026 RMK AO2 T00760048
KIRS 
19nm W 
150735Z AUTO 00000KT 10SM SCT100 09/03 A3024 RMK AO2 T00870029
TAF
KBTL 
38nm N 
150521Z 1506/1606 00000KT P6SM SCT090 BKN250 FM151600 24011KT P6SM BKN120 FM152300 28004KT P6SM -SHRA OVC050 FM160400 14003KT P6SM OVC040
KAZO 
39nm NW 
150521Z 1506/1606 00000KT P6SM SCT090 BKN250 FM151600 22011KT P6SM BKN120 FM152200 26004KT P6SM -SHRA OVC050 FM160400 14003KT P6SM OVC040
KJXN 
43nm NE 
150521Z 1506/1606 00000KT P6SM FEW100 BKN250 FM151600 23006KT P6SM BKN070 FM160000 00000KT P6SM -SHRA OVC050
KFWA 
45nm S 
150520Z 1506/1606 21003KT P6SM FEW250 FM151600 22008KT P6SM OVC080 FM160300 18003KT P6SM OVC040
NOTAMs
Click for the latest NOTAMs
NOTAMs are issued by the DoD/FAA and will open in a separate window not controlled by AirNav.

 

 
 

Would you like to see your business listed on this page?

 If your business provides an interesting product or service to pilots, flight crews, aircraft, or users of the Lake James Seaplane Base, you should consider listing it here.  To start the listing process, click on the button below
 
Add a business
 

Other Pages about Lake James Seaplane Base

Update a link
 
Copyright © AirNav, LLC. All rights reserved. Privacy Policy  Contact